Time;durP1;ratioP1;P1;durP2;ratioP2;P2;SDS_P1;SDS_P2;PMS_P1;PMS_P2;Temp;Humidity;BMP_temperature;BMP_pressure;BME280_temperature;BME280_humidity;BME280_pressure;Samples;Min_cycle;Max_cycle;Signal;HPM_P1;HPM_P2
2023/03/13 00:01:16;;;;;;;7.63;3.80;;;8.60;67.40;;;;;;5055935;28;20036;-64
2023/03/13 00:03:42;;;;;;;5.20;3.42;;;8.70;68.40;;;;;;5055039;28;20025;-65
2023/03/13 00:06:08;;;;;;;8.38;4.07;;;8.60;68.70;;;;;;5055575;28;20440;-64
2023/03/13 00:08:34;;;;;;;6.57;3.80;;;8.60;68.70;;;;;;5055367;28;20021;-65
2023/03/13 00:11:04;;;;;;;7.72;4.15;;;8.70;69.10;;;;;;5055512;28;20124;-65
2023/03/13 00:13:30;;;;;;;8.68;3.75;;;8.60;68.80;;;;;;5055215;28;20433;-65
2023/03/13 00:16:07;;;;;;;7.93;3.72;;;8.60;68.80;;;;;;5055565;28;20060;-65
2023/03/13 00:18:33;;;;;;;7.60;3.58;;;8.60;68.90;;;;;;5051147;28;20013;-65
2023/03/13 00:21:00;;;;;;;4.70;3.13;;;8.60;68.90;;;;;;5055728;28;20149;-65
2023/03/13 00:23:26;;;;;;;5.05;3.10;;;8.60;69.50;;;;;;5054932;28;20377;-67
2023/03/13 00:26:00;;;;;;;5.00;3.17;;;8.60;69.60;;;;;;5054990;28;20404;-65
2023/03/13 00:28:31;;;;;;;4.75;3.00;;;8.60;69.50;;;;;;5053957;28;20032;-65
2023/03/13 00:31:08;;;;;;;6.00;3.08;;;8.60;69.60;;;;;;5055439;28;20047;-66
2023/03/13 00:33:36;;;;;;;6.53;2.88;;;8.60;69.60;;;;;;5054941;28;20036;-63
2023/03/13 00:36:04;;;;;;;3.65;2.63;;;8.60;69.60;;;;;;5055078;28;20527;-64
2023/03/13 00:38:30;;;;;;;6.15;3.10;;;8.50;69.50;;;;;;5054344;28;20473;-66
2023/03/13 00:41:04;;;;;;;5.13;2.90;;;8.50;69.50;;;;;;5055322;28;20045;-64
2023/03/13 00:43:32;;;;;;;5.05;3.08;;;8.50;69.70;;;;;;5054478;28;20063;-66
2023/03/13 00:45:58;;;;;;;5.38;2.92;;;8.40;70.10;;;;;;5054657;28;20091;-65
2023/03/13 00:48:24;;;;;;;5.30;3.50;;;8.40;70.20;;;;;;5055053;28;20029;-64
2023/03/13 00:50:50;;;;;;;6.45;3.30;;;8.40;70.20;;;;;;5054608;28;20053;-64
2023/03/13 00:53:16;;;;;;;5.38;3.38;;;8.40;70.10;;;;;;5054639;28;20029;-64
2023/03/13 00:55:56;;;;;;;5.75;3.47;;;8.40;69.90;;;;;;5054544;28;20087;-64
2023/03/13 00:58:23;;;;;;;6.75;3.28;;;8.40;70.00;;;;;;5054942;28;20025;-65
2023/03/13 01:00:49;;;;;;;6.60;3.10;;;8.40;70.00;;;;;;5053822;28;20041;-64
2023/03/13 01:03:15;;;;;;;5.15;2.90;;;8.30;70.00;;;;;;5054856;28;20033;-64
2023/03/13 01:05:41;;;;;;;9.57;3.38;;;8.30;70.20;;;;;;5054198;28;20076;-65
2023/03/13 01:08:06;;;;;;;4.85;3.10;;;8.30;70.20;;;;;;5054602;28;20029;-65
2023/03/13 01:10:32;;;;;;;6.20;3.60;;;8.30;70.60;;;;;;5054079;28;20047;-66
2023/03/13 01:12:58;;;;;;;5.57;3.45;;;8.30;70.80;;;;;;5054276;28;20021;-65
2023/03/13 01:15:23;;;;;;;6.72;3.72;;;8.30;71.10;;;;;;5054417;28;20182;-65
2023/03/13 01:17:49;;;;;;;5.15;3.30;;;8.30;71.50;;;;;;5053950;28;20386;-65
2023/03/13 01:20:15;;;;;;;5.85;3.33;;;8.30;71.60;;;;;;5054162;28;20412;-65
2023/03/13 01:22:41;;;;;;;5.80;3.45;;;8.30;71.40;;;;;;5053897;28;20349;-65
2023/03/13 01:25:07;;;;;;;6.18;3.88;;;8.30;71.20;;;;;;5053985;28;20371;-65
2023/03/13 01:27:32;;;;;;;6.03;3.67;;;8.30;71.10;;;;;;5053372;28;20052;-65
2023/03/13 01:29:58;;;;;;;6.88;4.10;;;8.20;71.50;;;;;;5054219;28;20053;-65
2023/03/13 01:32:24;;;;;;;6.85;3.85;;;8.20;71.60;;;;;;5053951;28;20400;-65
2023/03/13 01:34:49;;;;;;;5.38;3.70;;;8.10;71.80;;;;;;5053502;28;20025;-65
2023/03/13 01:37:15;;;;;;;6.43;3.97;;;8.10;71.80;;;;;;5053945;28;20037;-65
2023/03/13 01:39:41;;;;;;;8.20;4.63;;;8.10;71.80;;;;;;5052888;28;20053;-65
2023/03/13 01:42:06;;;;;;;6.40;3.92;;;8.10;72.30;;;;;;5054275;28;20037;-65
2023/03/13 01:44:54;;;;;;;6.47;4.20;;;8.00;72.20;;;;;;5053309;28;20033;-66
2023/03/13 01:47:19;;;;;;;8.35;4.40;;;8.00;72.50;;;;;;5054109;28;20033;-65
2023/03/13 01:49:46;;;;;;;7.10;4.15;;;8.00;72.80;;;;;;5053109;28;20381;-64
2023/03/13 01:52:19;;;;;;;8.57;4.15;;;8.00;72.70;;;;;;5053675;28;20032;-64
2023/03/13 01:54:52;;;;;;;7.50;4.45;;;7.90;73.60;;;;;;5035609;28;20025;-65
2023/03/13 01:57:25;;;;;;;8.05;4.30;;;7.90;73.40;;;;;;5053627;28;20021;-64
2023/03/13 02:02:50;;;;;;;7.55;3.72;;;7.90;73.90;;;;;;5053151;28;20071;-64
2023/03/13 02:05:20;;;;;;;7.70;4.18;;;7.80;73.80;;;;;;5053291;28;20031;-65
2023/03/13 02:07:48;;;;;;;7.43;4.07;;;7.80;74.30;;;;;;5052974;28;20124;-65
2023/03/13 02:10:16;;;;;;;6.70;4.28;;;7.80;74.60;;;;;;5035528;28;20025;-65
2023/03/13 02:12:43;;;;;;;8.45;3.80;;;7.80;75.00;;;;;;5052995;28;20461;-65
2023/03/13 02:15:17;;;;;;;9.75;4.40;;;7.80;75.30;;;;;;5037059;28;20045;-65
2023/03/13 02:17:45;;;;;;;6.65;3.75;;;7.80;75.50;;;;;;5033041;28;20454;-65
2023/03/13 02:20:12;;;;;;;5.10;3.33;;;7.80;75.60;;;;;;5033438;28;20029;-65
2023/03/13 02:22:57;;;;;;;6.78;3.80;;;7.80;75.80;;;;;;5032911;28;20063;-65
2023/03/13 02:25:22;;;;;;;5.28;3.70;;;7.70;75.80;;;;;;5033276;28;20034;-65
2023/03/13 02:28:00;;;;;;;7.40;3.83;;;7.80;76.10;;;;;;5032928;28;20095;-65
2023/03/13 02:30:27;;;;;;;5.65;3.58;;;7.80;76.40;;;;;;5033378;28;20029;-65
2023/03/13 02:32:53;;;;;;;5.05;3.25;;;7.80;76.70;;;;;;5033027;28;20045;-65
2023/03/13 02:35:21;;;;;;;8.27;3.95;;;7.80;77.00;;;;;;5033190;28;20025;-65
2023/03/13 02:37:50;;;;;;;7.80;3.72;;;7.80;77.10;;;;;;5032281;28;20075;-66
2023/03/13 02:40:22;;;;;;;5.68;3.38;;;7.90;77.20;;;;;;5032843;28;20531;-65
2023/03/13 02:42:49;;;;;;;4.53;3.20;;;7.80;77.40;;;;;;5032669;28;20103;-65
2023/03/13 02:45:16;;;;;;;6.57;3.35;;;7.90;77.50;;;;;;5033009;28;20040;-65
2023/03/13 02:47:41;;;;;;;5.43;3.25;;;7.90;77.60;;;;;;5032468;28;20148;-65
2023/03/13 02:50:08;;;;;;;5.18;3.35;;;7.90;77.90;;;;;;5032940;28;20424;-65
2023/03/13 02:52:41;;;;;;;6.05;3.70;;;7.80;78.20;;;;;;5032294;28;20029;-65
2023/03/13 02:55:13;;;;;;;7.07;3.80;;;7.80;78.60;;;;;;5032770;28;20029;-65
2023/03/13 02:57:38;;;;;;;7.53;3.78;;;7.80;78.70;;;;;;5032626;28;20025;-65
2023/03/13 03:00:11;;;;;;;9.07;3.58;;;7.80;78.90;;;;;;5032684;28;20022;-65
2023/03/13 03:02:37;;;;;;;5.22;3.55;;;7.80;79.10;;;;;;5032802;28;20080;-65
2023/03/13 03:05:03;;;;;;;7.72;3.25;;;7.80;79.30;;;;;;5032748;28;20033;-65
2023/03/13 03:07:28;;;;;;;5.80;3.75;;;7.80;79.40;;;;;;5015998;28;20108;-65
2023/03/13 03:09:54;;;;;;;6.88;3.55;;;7.80;79.10;;;;;;5052012;28;20109;-65
2023/03/13 03:12:20;;;;;;;5.00;3.60;;;7.80;79.40;;;;;;5052432;28;20032;-65
2023/03/13 03:14:46;;;;;;;6.43;3.33;;;7.90;79.50;;;;;;5052501;28;20440;-65
2023/03/13 03:17:11;;;;;;;8.23;3.53;;;7.80;79.80;;;;;;5052473;28;20029;-65
2023/03/13 03:19:37;;;;;;;4.35;2.60;;;7.80;80.30;;;;;;5052442;28;20104;-68
2023/03/13 03:22:03;;;;;;;7.05;3.17;;;7.90;81.60;;;;;;5052164;28;20034;-65
2023/03/13 03:24:29;;;;;;;5.32;2.78;;;7.90;82.00;;;;;;5052266;28;20033;-65
2023/03/13 03:26:55;;;;;;;5.45;2.15;;;7.90;82.30;;;;;;5052104;28;20035;-65
2023/03/13 03:29:20;;;;;;;3.70;2.53;;;8.00;82.80;;;;;;5052389;28;20036;-65
2023/03/13 03:31:46;;;;;;;6.45;2.30;;;8.00;82.50;;;;;;5052041;28;20072;-65
2023/03/13 03:34:12;;;;;;;4.70;2.35;;;8.00;83.00;;;;;;5052117;28;20032;-65
2023/03/13 03:36:37;;;;;;;6.35;2.30;;;8.10;83.40;;;;;;5051863;28;20036;-65
2023/03/13 03:39:04;;;;;;;6.30;1.95;;;8.10;83.10;;;;;;5051594;28;20047;-65
2023/03/13 03:41:30;;;;;;;6.30;2.13;;;8.10;83.10;;;;;;5052251;28;20051;-65
2023/03/13 03:43:56;;;;;;;6.45;1.77;;;8.20;83.40;;;;;;5051745;28;20032;-65
2023/03/13 03:46:21;;;;;;;3.60;1.70;;;8.20;83.00;;;;;;5052221;28;20032;-65
2023/03/13 03:48:47;;;;;;;5.78;1.80;;;8.30;82.70;;;;;;5051705;28;20100;-65
2023/03/13 03:51:13;;;;;;;5.20;2.00;;;8.30;82.20;;;;;;5052534;28;20063;-65
2023/03/13 03:53:39;;;;;;;4.25;1.90;;;8.40;82.40;;;;;;5052319;28;20083;-65
2023/03/13 03:56:05;;;;;;;3.92;1.77;;;8.40;81.00;;;;;;5051665;28;20025;-65
2023/03/13 03:58:30;;;;;;;2.60;1.65;;;8.40;80.10;;;;;;5052156;28;20025;-65
2023/03/13 04:00:57;;;;;;;3.50;1.88;;;8.40;79.50;;;;;;5051723;28;20054;-65
2023/03/13 04:03:23;;;;;;;6.72;2.38;;;8.50;78.90;;;;;;5053498;28;20115;-65
2023/03/13 04:05:49;;;;;;;4.40;2.42;;;8.50;78.50;;;;;;5055015;28;20451;-65
2023/03/13 04:08:15;;;;;;;5.63;2.40;;;8.50;78.30;;;;;;5055695;28;20033;-65
2023/03/13 04:10:41;;;;;;;4.95;2.42;;;8.50;78.10;;;;;;5055400;28;20485;-65
2023/03/13 04:13:08;;;;;;;5.55;2.10;;;8.50;77.80;;;;;;5055115;28;20060;-65
2023/03/13 04:15:34;;;;;;;5.28;2.20;;;8.50;77.60;;;;;;5044592;28;20453;-65
2023/03/13 04:17:59;;;;;;;4.03;2.55;;;8.50;77.40;;;;;;5034921;28;20068;-65
2023/03/13 04:20:25;;;;;;;5.20;2.80;;;8.50;77.60;;;;;;5035738;28;20048;-65
2023/03/13 04:22:51;;;;;;;9.32;3.10;;;8.50;77.30;;;;;;5034845;28;20025;-65
2023/03/13 04:25:16;;;;;;;9.70;2.70;;;8.50;77.20;;;;;;5035070;28;20029;-64
2023/03/13 04:27:42;;;;;;;5.20;2.47;;;8.50;77.10;;;;;;5035477;28;20036;-64
2023/03/13 04:30:09;;;;;;;4.75;2.40;;;8.50;76.80;;;;;;5035001;28;20099;-64
2023/03/13 04:32:34;;;;;;;3.85;2.28;;;8.50;76.50;;;;;;5035312;28;20021;-64
2023/03/13 04:35:00;;;;;;;4.53;2.33;;;8.60;76.10;;;;;;5034978;28;20036;-64
2023/03/13 04:37:26;;;;;;;5.30;2.30;;;8.60;75.90;;;;;;5035444;28;20021;-64
2023/03/13 04:39:51;;;;;;;3.40;2.28;;;8.50;75.80;;;;;;5034791;28;20458;-65
2023/03/13 04:42:17;;;;;;;4.32;2.03;;;8.60;75.50;;;;;;5035209;28;20017;-64
2023/03/13 04:44:43;;;;;;;4.13;1.98;;;8.60;75.40;;;;;;5034658;28;20029;-64
2023/03/13 04:47:08;;;;;;;3.47;2.00;;;8.60;75.70;;;;;;5034704;28;20035;-64
2023/03/13 04:49:34;;;;;;;3.28;2.03;;;8.60;75.30;;;;;;5035106;28;20100;-64
2023/03/13 04:52:00;;;;;;;4.43;1.60;;;8.60;74.90;;;;;;5034421;28;20030;-65
2023/03/13 04:54:26;;;;;;;3.92;1.75;;;8.60;74.50;;;;;;5034869;28;20068;-65
2023/03/13 04:56:52;;;;;;;3.33;1.90;;;8.60;74.50;;;;;;5034534;28;20434;-65
2023/03/13 04:59:17;;;;;;;4.10;2.03;;;8.70;74.40;;;;;;5034727;28;20366;-64
2023/03/13 05:01:43;;;;;;;6.03;2.47;;;8.60;74.50;;;;;;5034793;28;20033;-64
2023/03/13 05:04:09;;;;;;;4.10;2.10;;;8.60;74.60;;;;;;5034230;28;20021;-65
2023/03/13 05:06:35;;;;;;;3.90;2.10;;;8.60;74.70;;;;;;5051436;28;20091;-64
2023/03/13 05:09:01;;;;;;;2.92;1.80;;;8.60;74.70;;;;;;5053788;28;20508;-65
2023/03/13 05:11:27;;;;;;;3.05;1.80;;;8.50;74.70;;;;;;5054543;28;20021;-65
2023/03/13 05:13:53;;;;;;;3.92;2.03;;;8.50;74.80;;;;;;5054470;28;20036;-65
2023/03/13 05:16:19;;;;;;;3.63;1.95;;;8.50;74.80;;;;;;5053768;28;20025;-65
2023/03/13 05:18:45;;;;;;;6.40;2.00;;;8.50;75.00;;;;;;5054434;28;20024;-65
2023/03/13 05:21:10;;;;;;;3.47;1.90;;;8.50;74.90;;;;;;5053822;28;20101;-65
2023/03/13 05:23:36;;;;;;;3.83;1.85;;;8.50;75.20;;;;;;5053995;28;20031;-65
2023/03/13 05:26:02;;;;;;;5.68;1.98;;;8.50;75.10;;;;;;5053677;28;20369;-65
2023/03/13 05:28:28;;;;;;;8.73;2.42;;;8.50;75.30;;;;;;5054336;28;20462;-66
2023/03/13 05:30:53;;;;;;;4.03;1.70;;;8.50;75.70;;;;;;5053862;28;20025;-66
2023/03/13 05:33:19;;;;;;;4.55;2.10;;;8.50;75.40;;;;;;5054106;28;20025;-66
2023/03/13 05:35:45;;;;;;;3.10;1.73;;;8.50;75.40;;;;;;5054032;28;20497;-65
2023/03/13 05:38:11;;;;;;;6.72;2.10;;;8.50;75.60;;;;;;5053772;28;20087;-65
2023/03/13 05:40:37;;;;;;;5.03;2.22;;;8.40;75.90;;;;;;5053925;28;20021;-66
2023/03/13 05:43:03;;;;;;;4.13;1.98;;;8.50;75.90;;;;;;5052981;28;20028;-66
2023/03/13 05:45:28;;;;;;;4.78;1.80;;;8.50;76.00;;;;;;5053899;28;20086;-65
2023/03/13 05:47:54;;;;;;;4.82;2.10;;;8.50;76.10;;;;;;5053372;28;20059;-65
2023/03/13 05:50:21;;;;;;;4.95;2.08;;;8.50;76.10;;;;;;5053647;28;20032;-65
2023/03/13 05:52:46;;;;;;;5.10;2.08;;;8.60;76.00;;;;;;5053747;28;20029;-65
2023/03/13 05:55:12;;;;;;;3.80;1.70;;;8.60;76.10;;;;;;5053142;28;20071;-65
2023/03/13 05:57:38;;;;;;;6.25;2.03;;;8.60;76.00;;;;;;5053302;28;20492;-65
2023/03/13 06:00:05;;;;;;;5.20;1.88;;;8.70;76.00;;;;;;5035173;28;20037;-65
2023/03/13 06:02:30;;;;;;;7.60;1.95;;;8.70;75.70;;;;;;5053488;28;20032;-65
2023/03/13 06:04:56;;;;;;;5.75;1.90;;;8.70;75.60;;;;;;5052877;28;20108;-65
2023/03/13 06:07:22;;;;;;;6.13;2.15;;;8.70;75.40;;;;;;5053742;28;20060;-65
2023/03/13 06:09:47;;;;;;;5.43;1.80;;;8.80;75.50;;;;;;5053087;28;20107;-65
2023/03/13 06:12:13;;;;;;;4.82;2.20;;;8.80;75.50;;;;;;5052664;28;20024;-65
2023/03/13 06:14:38;;;;;;;10.32;2.10;;;8.90;75.40;;;;;;5035350;28;20041;-66
2023/03/13 06:17:05;;;;;;;7.85;2.65;;;8.90;75.20;;;;;;5052621;28;20025;-66
2023/03/13 06:19:30;;;;;;;4.15;2.10;;;9.00;74.90;;;;;;5035650;28;20026;-64
2023/03/13 06:21:56;;;;;;;6.18;2.50;;;9.10;74.50;;;;;;5033014;28;20022;-64
2023/03/13 06:24:22;;;;;;;3.28;1.90;;;9.10;74.40;;;;;;5033189;28;20377;-65
2023/03/13 06:26:49;;;;;;;3.28;1.58;;;9.10;74.20;;;;;;5032027;28;20041;-64
2023/03/13 06:29:14;;;;;;;3.83;2.22;;;9.10;74.10;;;;;;5032573;28;20353;-64
2023/03/13 06:31:40;;;;;;;3.30;1.90;;;9.20;73.90;;;;;;5033418;28;20462;-65
2023/03/13 06:34:07;;;;;;;5.80;1.73;;;9.20;73.70;;;;;;5032418;28;20033;-65
2023/03/13 06:36:33;;;;;;;4.78;2.25;;;9.20;73.70;;;;;;5032781;28;20025;-65
2023/03/13 06:38:58;;;;;;;2.63;1.67;;;9.30;74.00;;;;;;5031925;28;20068;-65
2023/03/13 06:41:24;;;;;;;6.80;1.80;;;9.30;73.90;;;;;;5015310;28;20462;-65
2023/03/13 06:43:50;;;;;;;9.38;2.33;;;9.40;74.00;;;;;;5032805;28;20033;-65
2023/03/13 06:46:19;;;;;;;7.55;2.08;;;9.40;73.80;;;;;;5032201;28;20033;-65
2023/03/13 06:48:45;;;;;;;6.88;2.10;;;9.50;73.60;;;;;;5032638;28;20450;-65
2023/03/13 06:51:15;;;;;;;5.35;1.80;;;9.50;73.60;;;;;;5032481;28;20036;-65
2023/03/13 06:53:41;;;;;;;3.85;2.08;;;9.50;73.30;;;;;;5032589;28;20052;-65
2023/03/13 06:56:07;;;;;;;7.03;2.45;;;9.40;72.90;;;;;;5032250;28;20035;-65
2023/03/13 06:58:33;;;;;;;3.05;2.03;;;9.50;73.00;;;;;;5032604;28;20088;-65
2023/03/13 07:01:06;;;;;;;5.07;2.20;;;9.50;72.60;;;;;;5032052;28;20478;-66
2023/03/13 07:03:32;;;;;;;7.03;2.42;;;9.50;72.30;;;;;;5032573;28;20033;-64
2023/03/13 07:05:58;;;;;;;7.15;2.10;;;9.60;72.20;;;;;;5032022;28;20107;-66
2023/03/13 07:08:25;;;;;;;6.30;2.20;;;9.70;71.60;;;;;;5032384;28;20079;-64
2023/03/13 07:10:51;;;;;;;4.90;2.20;;;9.60;71.30;;;;;;5032581;28;20152;-64
2023/03/13 07:13:20;;;;;;;6.03;2.22;;;9.60;71.60;;;;;;5032458;28;20034;-64
2023/03/13 07:15:47;;;;;;;4.28;2.13;;;9.60;71.30;;;;;;5045731;28;20199;-64
2023/03/13 07:18:13;;;;;;;3.45;1.70;;;9.80;71.40;;;;;;5052171;28;20021;-64
2023/03/13 07:20:38;;;;;;;7.35;2.05;;;9.90;71.40;;;;;;5052891;28;20029;-63
2023/03/13 07:23:04;;;;;;;4.38;2.17;;;10.20;70.00;;;;;;5052347;28;20093;-66
2023/03/13 07:25:30;;;;;;;5.15;2.22;;;10.30;69.90;;;;;;5052488;28;20036;-64
2023/03/13 07:27:55;;;;;;;6.35;3.22;;;10.60;68.80;;;;;;5052652;28;20469;-65
2023/03/13 07:30:21;;;;;;;8.60;2.25;;;10.70;67.30;;;;;;5051909;28;20466;-64
2023/03/13 07:32:47;;;;;;;5.57;2.00;;;10.90;67.30;;;;;;5052780;28;20056;-65
2023/03/13 07:35:13;;;;;;;5.53;2.08;;;10.90;66.60;;;;;;5052181;28;20061;-65
2023/03/13 07:37:39;;;;;;;5.72;1.90;;;11.10;66.50;;;;;;5052612;28;20033;-64
2023/03/13 07:40:05;;;;;;;4.28;1.90;;;11.30;66.00;;;;;;5055656;28;20053;-64
2023/03/13 07:42:31;;;;;;;5.43;1.92;;;11.50;64.70;;;;;;5056028;28;20024;-65
2023/03/13 07:44:56;;;;;;;3.53;1.80;;;11.70;63.70;;;;;;5055984;28;20025;-64
2023/03/13 07:47:22;;;;;;;3.47;2.00;;;11.80;62.40;;;;;;5055468;28;20032;-64
2023/03/13 07:49:47;;;;;;;4.13;1.80;;;12.00;61.10;;;;;;5056194;28;20032;-64
2023/03/13 07:52:13;;;;;;;2.15;1.58;;;12.00;60.60;;;;;;5055342;28;20017;-64
2023/03/13 07:54:39;;;;;;;6.50;1.70;;;12.00;60.30;;;;;;5055227;28;20120;-65
2023/03/13 07:57:04;;;;;;;4.03;1.70;;;12.00;61.00;;;;;;5055413;28;20063;-65
2023/03/13 07:59:30;;;;;;;3.03;1.90;;;12.00;60.20;;;;;;5055194;28;20179;-64
2023/03/13 08:01:56;;;;;;;4.57;1.80;;;12.00;60.00;;;;;;5055906;28;20032;-64
2023/03/13 08:04:21;;;;;;;5.32;2.05;;;12.10;59.90;;;;;;5054979;28;20419;-64
2023/03/13 08:06:47;;;;;;;6.63;1.83;;;12.10;59.90;;;;;;5055129;28;20061;-65
2023/03/13 08:09:13;;;;;;;4.22;1.90;;;12.30;59.40;;;;;;5055141;28;20025;-64
2023/03/13 08:11:43;;;;;;;8.50;2.22;;;12.50;58.70;;;;;;5055319;28;20052;-64
2023/03/13 08:14:09;;;;;;;9.05;2.55;;;12.90;58.70;;;;;;5052521;28;20037;-63
2023/03/13 08:16:35;;;;;;;4.85;2.03;;;13.30;57.30;;;;;;5055239;28;20155;-65
2023/03/13 08:19:03;;;;;;;3.30;1.70;;;13.90;57.20;;;;;;5054876;28;20036;-67
2023/03/13 08:21:35;;;;;;;9.13;3.40;;;14.20;55.70;;;;;;5055214;28;20032;-64
2023/03/13 08:24:04;;;;;;;4.82;3.30;;;14.20;56.60;;;;;;5055050;28;20029;-64
2023/03/13 08:26:30;;;;;;;6.72;3.25;;;14.00;57.10;;;;;;5055105;28;20120;-64
2023/03/13 08:28:59;;;;;;;7.97;3.10;;;13.90;57.60;;;;;;5055189;28;20119;-64
2023/03/13 08:31:28;;;;;;;5.95;2.88;;;13.80;57.70;;;;;;5054545;28;20458;-64
2023/03/13 08:33:54;;;;;;;8.52;2.65;;;14.00;57.70;;;;;;5055048;28;20101;-64
2023/03/13 08:36:25;;;;;;;9.63;2.42;;;14.10;56.50;;;;;;5054848;28;20056;-64
2023/03/13 08:38:53;;;;;;;5.57;2.47;;;14.00;56.30;;;;;;5054865;28;20053;-65
2023/03/13 08:41:21;;;;;;;6.53;2.85;;;14.00;56.70;;;;;;5054533;28;20021;-65
2023/03/13 08:43:47;;;;;;;4.78;2.67;;;13.90;56.30;;;;;;5055306;28;20124;-64
2023/03/13 08:46:14;;;;;;;6.22;2.75;;;13.80;56.50;;;;;;5054563;28;20025;-63
2023/03/13 08:48:40;;;;;;;6.07;3.10;;;13.60;57.00;;;;;;5054632;28;20591;-65
2023/03/13 08:51:12;;;;;;;5.10;2.80;;;13.50;57.50;;;;;;5053504;28;20377;-66
2023/03/13 08:53:40;;;;;;;7.03;2.92;;;13.50;57.60;;;;;;5054760;28;20048;-65
2023/03/13 08:56:07;;;;;;;4.47;2.92;;;13.40;57.80;;;;;;5054265;28;20025;-65
2023/03/13 08:58:33;;;;;;;10.10;3.25;;;13.50;58.10;;;;;;5054737;28;20111;-65
2023/03/13 09:01:04;;;;;;;13.70;3.45;;;13.60;57.80;;;;;;5054980;28;20057;-65
2023/03/13 09:03:30;;;;;;;6.55;3.30;;;13.70;57.10;;;;;;5054255;28;20032;-65
2023/03/13 09:05:57;;;;;;;7.43;3.58;;;13.70;57.30;;;;;;5054490;28;20052;-65
2023/03/13 09:08:23;;;;;;;5.72;3.33;;;13.60;57.10;;;;;;5053946;28;20040;-64
2023/03/13 09:10:58;;;;;;;9.48;4.00;;;13.60;57.30;;;;;;5054141;28;20035;-64
2023/03/13 09:13:25;;;;;;;8.73;4.05;;;13.50;56.80;;;;;;5053764;28;20109;-65
2023/03/13 09:15:59;;;;;;;6.28;3.45;;;13.30;56.80;;;;;;5054480;28;20033;-65
2023/03/13 09:18:25;;;;;;;7.82;4.00;;;13.20;56.80;;;;;;5053775;28;20040;-64
2023/03/13 09:20:51;;;;;;;11.13;4.00;;;13.00;57.10;;;;;;5054707;28;20366;-64
2023/03/13 09:23:17;;;;;;;7.72;4.20;;;12.90;56.70;;;;;;5053825;28;20074;-64
2023/03/13 09:25:43;;;;;;;7.45;4.50;;;12.90;56.80;;;;;;5054004;28;20512;-64
2023/03/13 09:28:09;;;;;;;7.57;3.90;;;12.80;56.70;;;;;;5053712;28;20037;-65
2023/03/13 09:30:34;;;;;;;8.38;5.00;;;12.70;56.80;;;;;;5053822;28;20032;-64
2023/03/13 09:33:00;;;;;;;9.38;4.72;;;12.60;56.50;;;;;;5053956;28;20047;-65
2023/03/13 09:35:26;;;;;;;8.45;5.03;;;12.60;56.50;;;;;;5053915;28;20473;-65
2023/03/13 09:37:51;;;;;;;8.15;4.82;;;12.70;56.60;;;;;;5053753;28;20048;-64
2023/03/13 09:40:21;;;;;;;7.93;4.90;;;12.90;56.10;;;;;;5019200;28;20028;-65
2023/03/13 09:42:49;;;;;;;9.05;5.55;;;13.00;55.50;;;;;;5053834;28;20119;-64
2023/03/13 09:45:37;;;;;;;8.45;5.85;;;12.90;54.70;;;;;;5052967;28;20428;-65
2023/03/13 09:48:12;;;;;;;11.07;4.70;;;12.90;55.20;;;;;;5053587;28;20029;-64
2023/03/13 09:50:45;;;;;;;8.07;4.60;;;13.00;54.60;;;;;;5053343;28;20028;-65
2023/03/13 09:53:24;;;;;;;15.65;6.05;;;13.10;55.20;;;;;;5053042;28;20435;-65
2023/03/13 09:55:51;;;;;;;7.38;5.03;;;13.30;54.40;;;;;;5053306;28;20462;-65
2023/03/13 09:58:21;;;;;;;10.40;5.45;;;13.40;53.90;;;;;;5052792;28;20033;-65
2023/03/13 10:01:01;;;;;;;7.27;4.80;;;13.50;53.50;;;;;;5053530;28;20432;-65
2023/03/13 10:03:30;;;;;;;7.00;4.82;;;13.50;52.50;;;;;;5052950;28;20334;-67
2023/03/13 10:06:03;;;;;;;8.95;5.18;;;13.50;53.60;;;;;;5053118;28;20389;-65
2023/03/13 10:08:31;;;;;;;8.30;5.00;;;13.60;53.60;;;;;;5053202;28;20028;-65
2023/03/13 10:11:36;;;;;;;8.45;5.32;;;13.60;52.70;;;;;;5053118;28;20021;-65
2023/03/13 10:14:12;;;;;;;10.00;5.15;;;13.60;52.70;;;;;;4998154;28;20127;-65
2023/03/13 10:17:21;;;;;;;12.82;4.63;;;13.60;52.70;;;;;;5053205;28;20027;-64
2023/03/13 10:19:55;;;;;;;11.15;5.28;;;13.50;52.30;;;;;;5041100;28;20098;-66
2023/03/13 10:22:25;;;;;;;9.13;5.72;;;13.50;52.80;;;;;;5018374;28;20084;-65
2023/03/13 10:24:59;;;;;;;8.70;5.30;;;13.50;53.00;;;;;;5033023;28;20042;-64
2023/03/13 10:27:25;;;;;;;7.60;5.45;;;13.50;53.30;;;;;;5015063;28;20083;-65
2023/03/13 10:29:51;;;;;;;9.43;5.40;;;13.50;53.30;;;;;;5015296;28;20041;-65
2023/03/13 10:32:18;;;;;;;11.05;4.78;;;13.60;53.80;;;;;;5032872;28;20029;-65
2023/03/13 10:34:56;;;;;;;9.48;4.80;;;13.60;52.80;;;;;;5032947;28;20034;-64
2023/03/13 10:37:23;;;;;;;8.90;4.80;;;13.70;52.60;;;;;;5032580;28;20030;-65
2023/03/13 10:39:49;;;;;;;7.53;4.65;;;13.70;52.00;;;;;;5032881;28;20470;-65
2023/03/13 10:42:23;;;;;;;9.70;4.28;;;13.70;52.20;;;;;;5032208;28;20036;-64
2023/03/13 10:44:55;;;;;;;9.52;4.47;;;13.70;52.50;;;;;;5032823;28;20037;-66
2023/03/13 10:47:20;;;;;;;6.63;4.57;;;13.70;52.30;;;;;;5014826;28;20129;-65
2023/03/13 10:49:56;;;;;;;7.00;4.47;;;13.70;52.40;;;;;;5032506;28;20100;-65
2023/03/13 10:52:40;;;;;;;9.40;4.45;;;13.70;52.40;;;;;;5032116;28;20084;-64
2023/03/13 10:55:09;;;;;;;7.32;4.13;;;13.70;52.60;;;;;;5032790;28;20051;-64
2023/03/13 10:57:36;;;;;;;8.65;4.60;;;13.70;52.50;;;;;;5032325;28;20025;-65
2023/03/13 11:00:25;;;;;;;13.00;4.72;;;13.80;52.60;;;;;;5032388;28;20029;-65
2023/03/13 11:02:52;;;;;;;6.28;4.20;;;13.90;52.30;;;;;;5032457;28;20108;-63
2023/03/13 11:05:27;;;;;;;12.40;3.88;;;13.90;52.50;;;;;;5035183;28;20021;-66
2023/03/13 11:07:53;;;;;;;4.90;3.70;;;13.90;52.40;;;;;;5032424;28;20030;-65
2023/03/13 11:10:31;;;;;;;7.85;3.55;;;13.90;52.20;;;;;;5031967;28;20037;-65
2023/03/13 11:12:57;;;;;;;6.63;3.55;;;13.80;52.70;;;;;;5034841;28;20079;-65
2023/03/13 11:15:50;;;;;;;5.07;3.65;;;13.80;52.50;;;;;;5038383;28;20040;-66
2023/03/13 11:18:21;;;;;;;5.78;3.50;;;13.80;52.40;;;;;;5038852;28;20028;-65
2023/03/13 11:20:48;;;;;;;11.05;4.90;;;13.90;52.90;;;;;;5038747;28;20363;-65
2023/03/13 11:23:26;;;;;;;6.55;3.78;;;13.90;52.80;;;;;;5038983;28;20100;-65
2023/03/13 11:25:55;;;;;;;6.30;3.70;;;13.90;52.50;;;;;;5038939;28;20033;-65
2023/03/13 11:28:39;;;;;;;5.63;3.47;;;14.00;52.40;;;;;;5038540;28;20539;-65
2023/03/13 11:31:10;;;;;;;5.13;2.97;;;14.10;52.70;;;;;;5039222;28;20080;-65
2023/03/13 11:34:08;;;;;;;6.35;3.15;;;14.10;51.30;;;;;;5038486;28;20030;-65
2023/03/13 11:37:02;;;;;;;5.30;2.70;;;14.10;51.80;;;;;;5031606;28;20033;-65
2023/03/13 11:39:43;;;;;;;5.70;2.97;;;14.20;51.60;;;;;;5038130;28;20053;-64
2023/03/13 11:42:26;;;;;;;8.88;3.03;;;14.10;51.30;;;;;;5038758;28;20141;-65
2023/03/13 11:45:17;;;;;;;7.07;2.80;;;14.20;51.20;;;;;;5038273;28;20033;-64
2023/03/13 11:48:10;;;;;;;3.60;2.65;;;14.20;51.30;;;;;;5038667;28;20033;-65
2023/03/13 11:50:47;;;;;;;5.57;2.83;;;14.20;51.30;;;;;;5038316;28;20436;-64
2023/03/13 11:53:40;;;;;;;7.40;4.57;;;14.20;51.10;;;;;;5038977;28;20033;-65
2023/03/13 11:56:25;;;;;;;3.72;2.80;;;14.10;51.20;;;;;;5038932;28;20046;-64
2023/03/13 11:59:03;;;;;;;6.57;3.00;;;14.10;51.30;;;;;;5038577;28;20500;-66
2023/03/13 12:01:36;;;;;;;9.30;3.05;;;14.10;51.60;;;;;;5038219;28;20069;-64
2023/03/13 12:04:26;;;;;;;6.72;2.80;;;14.10;51.90;;;;;;5038402;28;20478;-65
2023/03/13 12:07:07;;;;;;;6.97;3.00;;;14.10;51.60;;;;;;5038310;28;20037;-64
2023/03/13 12:09:40;;;;;;;5.38;3.15;;;14.10;51.80;;;;;;5038186;28;20075;-64
2023/03/13 12:12:22;;;;;;;5.03;2.80;;;14.00;51.60;;;;;;5038713;28;20080;-65
2023/03/13 12:15:04;;;;;;;9.05;3.13;;;14.00;51.50;;;;;;5038709;28;20028;-65
2023/03/13 12:17:40;;;;;;;5.47;2.85;;;14.00;51.80;;;;;;5037814;28;20033;-64
2023/03/13 12:20:28;;;;;;;8.02;3.45;;;14.00;51.90;;;;;;5038346;28;20030;-65
2023/03/13 12:23:17;;;;;;;8.48;2.72;;;13.90;51.90;;;;;;5038631;28;20024;-65
2023/03/13 12:25:53;;;;;;;8.07;2.60;;;14.00;52.10;;;;;;5052699;28;20040;-65
2023/03/13 12:28:40;;;;;;;8.70;2.45;;;14.00;52.00;;;;;;5054785;28;20036;-65
2023/03/13 12:31:21;;;;;;;6.68;2.53;;;14.00;52.00;;;;;;5055172;28;20033;-66
2023/03/13 12:34:13;;;;;;;5.00;2.70;;;14.00;52.20;;;;;;5055228;28;20025;-65
2023/03/13 12:36:59;;;;;;;6.72;2.65;;;14.10;52.20;;;;;;5054586;28;20029;-65
2023/03/13 12:39:31;;;;;;;7.05;2.80;;;14.20;52.10;;;;;;5053725;28;20131;-65
2023/03/13 12:42:37;;;;;;;3.28;2.42;;;14.20;52.10;;;;;;5055485;28;20034;-65
2023/03/13 12:45:04;;;;;;;6.70;2.50;;;14.30;52.20;;;;;;5018279;28;20041;-65
2023/03/13 12:47:34;;;;;;;5.07;2.53;;;14.40;51.80;;;;;;5054288;28;20037;-64
2023/03/13 12:50:31;;;;;;;5.00;3.22;;;14.50;51.80;;;;;;5055051;28;20029;-64
2023/03/13 12:53:24;;;;;;;5.72;2.65;;;14.50;51.40;;;;;;5055313;28;20029;-65
2023/03/13 12:56:30;;;;;;;6.75;2.83;;;14.60;51.40;;;;;;5054156;28;20040;-64
2023/03/13 12:59:25;;;;;;;5.57;2.50;;;14.60;51.10;;;;;;5054147;28;20033;-64
2023/03/13 13:01:55;;;;;;;6.60;2.85;;;14.60;51.40;;;;;;5033159;28;20036;-65
2023/03/13 13:04:24;;;;;;;4.43;2.40;;;14.70;51.60;;;;;;5054402;28;20115;-64
2023/03/13 13:06:53;;;;;;;6.22;2.47;;;14.70;51.30;;;;;;5054748;28;20029;-64
2023/03/13 13:09:26;;;;;;;6.28;2.97;;;14.70;51.60;;;;;;5054597;28;20120;-65